This is the latest recevied weather packets stored in our database for station/object KF7IOR. If no packets are shown the sender has not sent any weather packets the latest 10 day(s).
| Time | Temp. | Humidity | Pressure | Rain* | Wind** | Luminosity | Snow |
|---|---|---|---|---|---|---|---|
| 1777707335 | 12.22° C | 76% | 1016.5 hPa | 0 mm | - | 0 W/m² | - |
| 1777706153 | 12.22° C | 75% | 1016.6 hPa | 0 mm | - | 0 W/m² | - |
| 1777702835 | 12.78° C | 74% | 1016.4 hPa | 0 mm | - | 0 W/m² | - |
| 1777702545 | 12.78° C | 74% | 1016.4 hPa | 0 mm | - | 0 W/m² | - |
| 1777698939 | 13.89° C | 71% | 1016 hPa | 0 mm | - | 0 W/m² | - |
| 1777698634 | 13.89° C | 71% | 1015.9 hPa | 0 mm | - | 0 W/m² | - |
| 1777696835 | 15° C | 69% | 1015.9 hPa | 0 mm | - | 0 W/m² | - |
| 1777694735 | 16.11° C | 68% | 1015.3 hPa | 0 mm | - | 0 W/m² | - |
| 1777693835 | 16.67° C | 66% | 1015 hPa | 0 mm | - | 0 W/m² | - |
| 1777690851 | 18.33° C | 62% | 1014.2 hPa | 0 mm | - | 7 W/m² | - |
| 1777690235 | 18.89° C | 61% | 1014.1 hPa | 0 mm | - | 14 W/m² | - |
| 1777686937 | 21.11° C | 56% | 1013.6 hPa | 0 mm | - | 88 W/m² | - |
| 1777685446 | 22.22° C | 54% | 1013.5 hPa | 0 mm | - | 134 W/m² | - |
| 1777685135 | 22.22° C | 54% | 1013.5 hPa | 0 mm | - | 148 W/m² | - |
| 1777683655 | 23.33° C | 52% | 1013.5 hPa | 0 mm | - | 190 W/m² | - |
| 1777683335 | 23.33° C | 51% | 1013.5 hPa | 0 mm | - | 192 W/m² | - |
| 1777682435 | 23.89° C | 50% | 1013.4 hPa | 0 mm | - | 299 W/m² | - |
| 1777681849 | 24.44° C | 49% | 1013.4 hPa | 0 mm | - | 427 W/m² | - |
| 1777678835 | 24.44° C | 41% | 1013.3 hPa | 0 mm | - | 434 W/m² | - |
| 1777676447 | 23.33° C | 43% | 1013.8 hPa | 0 mm | - | 605 W/m² | - |
| 1777675235 | 23.89° C | 46% | 1014.1 hPa | 0 mm | - | 570 W/m² | - |
| 1777674935 | 24.44° C | 47% | 1014.1 hPa | 0 mm | - | 642 W/m² | - |
| 1777672855 | 23.33° C | 47% | 1014.5 hPa | 0 mm | - | 682 W/m² | - |
| 1777672535 | 22.78° C | 47% | 1014.6 hPa | 0 mm | - | 680 W/m² | - |
| 1777671336 | 23.33° C | 47% | 1014.8 hPa | 0 mm | - | 605 W/m² | - |
* Rain latest hour (hover to see other rain measurements)
** Current wind speed in m/s (hover to see current wind gust speed)